BFIBOEING FIELD/KING COUNTY INTL
METARs for nearby airports:
N 0 21' KBFI 291853Z 16004KT 7SM -RA SCT020 OVC031 08/07 A3010
SE 4 32' KRNT 291853Z 14003KT 6SM -RA BR OVC037 08/06 A3010
S 4 432' KSEA 291853Z 13007KT 6SM -RA BR OVC031 08/06 A3009
W 18 444' KPWT 291856Z 20011KT 7SM RA OVC006 08/07 A3009
SW 19 294' KTIW 291853Z 18007KT 5SM -RA BR SCT015 BKN041 OVC050 07/07 A3010
N 22 607' KPAE 291853Z 17011KT 10SM -RA SCT032 BKN047 OVC070 08/06 A3008
S 24 322' KTCM 291858Z 17006KT 10SM -RA FEW028 FEW034 OVC055 08/08 A3009
S 25 537' KPLU 291915Z 20009KT 8SM -DZ SCT047 09/07 A3009
S 29 301' KGRF 291758Z 16008KT 10SM -RA FEW036 OVC045 09/09 A3008
N 38 141' KAWO 291856Z 15015KT 10SM OVC035 09/06 A3008
SW 38 272' KSHN 291850Z 00000KT 2 1/2SM -RA BR FEW008 BKN014 OVC022 07/07 A3007
SW 41 207' KOLM 291854Z 19013G19KT 5SM -RA BR BKN015 BKN021 OVC038 08/07 A3010
N 51 47' KNUW 291856Z 15020G31KT 8SM -RA FEW020 SCT040 OVC060 11/06 A3006
N 56 145' KBVS 291915Z 16012G18KT 10SM BKN024 BKN036 OVC047 09/06 A3005
NW 57 13' KNOW 291850Z 00000KT 4SM RA BKN006 BKN012 OVC065 08/07 A3001
SW 58 177' KCLS 291915Z 19014G19KT 4SM -RA BKN042 09/08 A3013
NW 59 291' KCLM 291914Z 33003KT 1SM -RA BR VV003 07/07 A3001
NW 66 112' KFHR 291853Z 16011G20KT 8SM -RA OVC055 08/07 A3002
SW 74 17' KHQM 291853Z 25018KT 4SM RA BR SCT011 BKN017 OVC024 10/09 A3009
N 74 34' KORS 291915Z 17012KT 140V210 3SM -RA BKN015 09/08 A3000
N 76 171' KBLI 291853Z 16016G27KT 6SM -RA FEW015 SCT041 OVC050 09/05 A3000
E 78 1763' KELN 291853Z 00000KT 9SM SCT003 OVC011 01/00 A3013
NW 80 64' CYYJ 291900Z 12007KT 8SM -RA FEW005 SCT028 OVC064 08/08 A2998
E 85 1248' KEAT 291915Z 10005KT 1SM BR OVC002 01/M01 A3014
S 88 20' KKLS 291856Z 15010G16KT 10SM -RA OVC018 09/07 A3017
SE 92 1098' KYKM 291853Z 00000KT 10SM FEW110 03/01 A3016
W 94 193' KUIL 291917Z 26013G19KT 2 1/2SM -RA BR OVC004 10/09 A3004
TAFs for nearby airports:
N 0 21' KBFI TAF KBFI 291720Z 2918/3018 15008KT P6SM -RA OVC040
  FM291900 17008KT 5SM -RA SCT015 OVC025
  FM300000 19008KT P6SM SCT010 BKN016 OVC025
  FM300600 13006KT P6SM BKN035 OVC050
  FM301200 VRB03KT P6SM SCT025 BKN050
S 4 432' KSEA TAF KSEA 291720Z 2918/3024 16008KT P6SM -RA OVC035
  FM291900 18012KT 5SM -RA SCT010 OVC020
  FM300000 22009KT P6SM SCT006 BKN012 OVC020
  FM300600 VRB04KT P6SM BKN035 OVC050
  FM301200 11004KT P6SM SCT025 BKN050
  FM302100 18007KT P6SM OVC100
W 18 444' KPWT TAF KPWT 291720Z 2918/3018 20010KT P6SM -RA BKN006 OVC015
  FM300000 17008KT P6SM OVC015
  FM301000 VRB03KT P6SM OVC004
N 22 607' KPAE TAF KPAE 291720Z 2918/3018 16014KT P6SM -RA SCT015 BKN035
  FM292000 18012KT P6SM -RA SCT010 OVC020
  FM300200 VRB03KT P6SM OVC050
  FM300400 14006KT P6SM SCT015 BKN025 OVC050
  FM301000 12004KT P6SM SCT006 BKN011 OVC020
S 24 322' KTCM TAF KTCM 291300Z 2913/3019 18009KT 9000 -RA BKN020 OVC040 620609 QNH3009INS
  BECMG 2917/2918 19010G15KT 8000 -RA BR BKN015 OVC030 620509 QNH3004INS
  TEMPO 2918/2923 19015G22KT 510003
  BECMG 2923/2924 20012KT 9999 NSW BKN015 BKN030 QNH3010INS
  BECMG 3006/3007 VRB06KT 9000 BR BKN010 OVC020 QNH3023INS
  BECMG 3011/3012 VRB06KT 4800 BR FEW010 SCT020 QNH3028INS
  BECMG 3015/3016 16006KT 9999 NSW FEW020 SCT200 QNH3025INS TX09/2922Z TN03/3014Z
S 29 301' KGRF TAF KGRF 291300Z 2913/3019 17009KT 8000 -RA FEW020 OVC030 620507 QNH3009INS
  BECMG 2917/2918 19012G18KT 8000 -RA BKN020 OVC030 620709 510205 QNH3005INS
  BECMG 2920/2921 VRB06KT 9999 NSW SCT150 QNH3013INS
  BECMG 3002/3003 VRB06KT 6000 BR BKN015 OVC020 QNH3022INS
  BECMG 3017/3018 VRB06KT 9999 NSW BKN015 QNH3020INS TX09/2920Z TN04/3012Z
SW 41 207' KOLM TAF KOLM 291720Z 2918/3018 20013KT 5SM -RA BR OVC015
  FM292300 20012KT P6SM SCT010 BKN016 OVC025
  FM300300 18006KT P6SM SCT020 BKN035 OVC050
  FM301000 VRB03KT 2SM BR OVC005
  FM301700 20004KT 4SM BR OVC007
N 51 47' KNUW TAF COR KNUW 2915/3015 14020G38KT 9999 VCSH SCT015 BKN040 BKN120 651309 530009 QNH3000INS
  TEMPO 2915/2920 14024G42KT 8000 -RA BR SCT006 OVC015
  FM292000 17016G26KT 9999 VCSH SCT012 SCT030 650609 651709 530009 QNH3002INS
  TEMPO 2920/3002 22007KT 6000 -RA SCT012 BKN025
  FM300600 15007KT 8000 BR SCT006 BKN150 600000 530009 QNH3013INS
  TEMPO 3006/3012 2400 BR BKN006 OVC150 T13/2922Z T06/3013Z COR 1558 FS30004
NW 59 291' KCLM TAF KCLM 291720Z 2918/3018 VRB03KT 2SM -RA BR OVC003
  FM292200 28010KT 6SM BR BKN010
  FM292300 27008KT P6SM SCT010 BKN050
  FM300400 26004KT P6SM SCT010 OVC020
  FM301200 VRB03KT P6SM BKN020
SW 74 17' KHQM TAF KHQM 291720Z 2918/3018 19018G25KT 5SM RA BKN015 OVC020
  FM292100 18014KT P6SM -SHRA SCT015 BKN030
  FM300400 11006KT P6SM SCT006 BKN010 OVC020
N 76 171' KBLI TAF KBLI 291720Z 2918/3018 16016G29KT 6SM -RA BKN025 OVC035
  FM292000 18012G23KT 6SM -RA SCT015 OVC025
  FM300000 18012KT P6SM SCT025 OVC050
  FM300400 16006KT P6SM OVC050
E 85 1248' KEAT KEAT 291740Z 2918/3018 08005KT P6SM OVC008
  TEMPO 2918/2922 5SM -RA BR OVC006
  FM292200 15005KT P6SM OVC012
  FM300200 32007KT P6SM SCT008 SCT250
  FM301500 VRB03KT 2SM BR VCFG BKN003
SE 92 1098' KYKM KYKM 291734Z 2918/3018 VRB04KT 6SM -RA BR SCT020 BKN030 OVC050
  FM300100 27005KT 6SM BR SCT015 BKN250
  FM301730 VRB04KT P6SM FEW015 BKN150

Shortcut to this page: http://wxbay.com.

Data may contain errors.